Sugar Bowl, California Weather observations

Data are for observation ending at time listed.
 Day   Time    Ave.   Ave.  Ave.  Vector   Max.   Stn.    Total    Solar   Ave.   Snow 
  of    of     Air    Rel.  Wind   Wind    Wind   Baro.  Precip.   Rad.    Soil   Depth
Year   Day     Temp.  Hum.  Speed  Dir.    Gust   Pres.                    Temp.       
2016   (PST)    F      %     mph   deg.    mph     mb.     in.     W/m2     F      in. 
---------------------------------------------------------------------------------------  
 151   19:50   51.4    72    0.4   258      3.7   791.1    0.00       0    999.0    1.6
 151   20:00   50.4    74    1.2   186      4.2   791.2    0.00       0    999.0    1.8
 151   20:10   50.5    74    0.5   180      3.8   791.3    0.00       0    999.0    1.7
 151   20:20   50.1    75    0.9   176      7.2   791.3    0.00       0    999.0    1.8
 151   20:30   49.2    76    0.4   215      2.5   791.3    0.00       0    999.0    2.0
 151   20:40   48.7    77    0.5   144      1.7   791.4    0.00       0    999.0    2.0
 151   20:50   48.2    78    0.5    96      3.5   791.5    0.00       0    999.0    1.9
 151   21:00   48.0    78    0.3   126      1.7   791.5    0.00       0    999.0    2.0
 151   21:10   47.6    78    0.2   198      1.4   791.5    0.00       0    999.0    1.9
 151   21:20   47.6    77    0.2   285      1.9   791.6    0.00       0    999.0    1.9
 151   21:30   47.2    77    0.6   248      2.8   791.6    0.00       0    999.0    1.9
 151   21:40   46.7    77    0.4   162      2.0   791.6    0.00       0    999.0    1.8
 151   21:50   46.5    74    0.1    54      1.2   791.5    0.00       0    999.0    2.0
 151   22:00   46.1    74    0.0     9      1.0   791.5    0.00       0    999.0    1.9
 151   22:10   46.1    72    0.4   208      2.4   791.5    0.00       0    999.0    1.9
 151   22:20   46.8    71    0.5    71      2.2   791.4    0.00       0    999.0    1.9
 151   22:30   47.3    71    0.4    81      3.3   791.4    0.00       0    999.0    1.8
 151   22:40   47.5    72    0.7    50      3.0   791.3    0.00       0    999.0    1.7
 151   22:50   47.4    73    0.5    41      2.6   791.2    0.00       0    999.0    1.8
 151   23:00   47.4    74    0.6    83      2.9   791.1    0.00       0    999.0    1.8
 151   23:10   47.4    74    0.5   123      2.5   791.1    0.00       0    999.0    1.8
 151   23:20   47.2    74    0.7    90      2.6   791.0    0.00       0    999.0    1.6
 151   23:30   47.1    73    0.3    56      2.2   791.0    0.00       0    999.0    1.7
 151   23:40   47.3    73    1.1   108      5.3   791.0    0.00       0    999.0    1.7
 151   23:50   48.6    70    0.9    75      4.2   790.9    0.00       0    999.0    1.6
 152    0:00   48.6    69    0.6    68      3.8   790.9    0.00       0    999.0    1.7
 152    0:10   49.3    67    0.6    78      3.6   790.8    0.00       0    999.0    1.7
 152    0:20   49.3    66    1.1    74      4.7   790.8    0.00       0    999.0    1.7
 152    0:30   49.5    65    0.6    84      4.4   790.8    0.00       0    999.0    1.8
 152    0:40   49.9    63    0.7    78      3.9   790.7    0.00       0    999.0    1.8
 152    0:50   50.7    59    2.0    86      8.2   790.7    0.00       0    999.0    1.8
 152    1:00   50.4    58    1.6    98      7.3   790.7    0.00       0    999.0    1.8
 152    1:10   49.8    59    0.9    53      4.2   790.7    0.00       0    999.0    1.6
 152    1:20   50.5    57    1.4    89      5.0   790.7    0.00       0    999.0    1.6
 152    1:30   50.5    57    2.2    81      7.4   790.7    0.00       0    999.0    1.6
 152    1:40   50.8    57    1.1    73      8.0   790.6    0.00       0    999.0    1.6
 152    1:50   49.0    60    0.2    19      2.0   790.7    0.00       0    999.0    1.7
 152    2:00   48.6    61    0.7    49      4.8   790.7    0.00       0    999.0    1.7
 152    2:10   48.3    61    0.7    63      3.9   790.6    0.00       0    999.0    1.8
 152    2:20   48.4    61    1.1    60      4.3   790.6    0.00       0    999.0    1.8
 152    2:30   48.3    61    1.1    77      6.5   790.6    0.00       0    999.0    1.8
 152    2:40   49.4    59    2.0    76      5.5   790.5    0.00       0    999.0    1.8
 152    2:50   50.5    56    3.3    87      8.1   790.5    0.00       0    999.0    1.6
 152    3:00   51.9    53    3.9    90      9.4   790.4    0.00       0    999.0    1.5
 152    3:10   52.9    52    3.9    96     10.4   790.4    0.00       0    999.0    1.6
 152    3:20   52.5    52    4.1    93     13.0   790.4    0.00       0    999.0    1.6
 152    3:30   52.8    52    4.0    92     11.3   790.4    0.00       0    999.0    1.7
 152    3:40   52.0    54    3.2    89      8.8   790.3    0.00       0    999.0    1.4
 152    3:50   52.3    54    2.4    94      9.9   790.3    0.00       0    999.0    1.7
 152    4:00   50.1    59    0.6    46      3.7   790.3    0.00       0    999.0    1.8
 152    4:10   49.1    61    0.5    16      4.0   790.3    0.00       0    999.0    1.9
 152    4:20   48.7    60    0.4   299      2.6   790.2    0.00       0    999.0    1.9
 152    4:30   48.3    60    0.8   289      2.9   790.3    0.00       1    999.0    1.9
 152    4:40   48.0    60    1.0   282      3.9   790.3    0.00       2    999.0    1.9
 152    4:50   47.6    61    0.6   282      2.3   790.3    0.00       5    999.0    1.9
 152    5:00   47.2    63    0.4   268      2.5   790.3    0.00       7    999.0    2.0
 152    5:10   47.0    64    0.7   312      3.8   790.3    0.00      10    999.0    2.0
 152    5:20   46.7    64    0.3   314      1.8   790.3    0.00      18    999.0    1.9
 152    5:30   46.7    65    0.7    37      5.3   790.4    0.00      37    999.0    1.9
 152    5:40   48.5    62    2.3    78      8.6   790.4    0.00      59    999.0    1.9
 152    5:50   49.0    63    1.6    75      5.8   790.5    0.00     176    999.0    1.8
 152    6:00   50.1    60    2.8    77      7.0   790.5    0.00     219    999.0    2.0
 152    6:10   52.8    53    3.3    76      9.3   790.5    0.00     253    999.0    1.9
 152    6:20   54.3    50    3.7    74     14.7   790.6    0.00     293    999.0    1.8
 152    6:30   55.7    47    4.1    77     12.5   790.6    0.00     331    999.0    1.3
 152    6:40   56.1    47    4.3    79     14.3   790.6    0.00     370    999.0    1.7
 152    6:50   57.0    45    5.4    82     17.2   790.6    0.00     410    999.0    1.6
 152    7:00   57.7    48    3.7    76     19.6   790.7    0.00     446    999.0    1.3
 152    7:10   58.0    50    2.7    52     13.0   790.7    0.00     481    999.0    0.8
 152    7:20   58.0    52    2.0    36      8.0   790.7    0.00     512    999.0    0.9
 152    7:30   57.6    53    2.2    36      6.6   790.6    0.00     545    999.0    0.7
 152    7:40   58.7    50    1.9    57     11.5   790.6    0.00     583    999.0    0.8
 152    7:50   59.6    43    4.1    60     13.2   790.6    0.00     619    999.0    0.3
 152    8:00   59.9    40    4.8    72     17.1   790.7    0.00     652    999.0    0.9
 152    8:10   60.4    38    4.3    65     14.7   790.6    0.00     656    999.0    0.3
 152    8:20   60.1    41    3.8    52     13.5   790.6    0.00     190    999.0    0.6
 152    8:30   60.8    38    5.6    68     18.0   790.6    0.00     348    999.0    0.5
 152    8:40   61.3    39    3.9    63     20.2   790.6    0.00     769    999.0    0.8
 152    8:50   62.2    38    3.6    64     14.5   790.6    0.00     511    999.0    0.2
 152    9:00   62.2    39    3.4    67     11.6   790.5    0.00     535    999.0    0.4
 152    9:10   62.6    36    4.3    82     16.5   790.5    0.00      78    999.0    1.2
 152    9:20   63.1    36    4.2    81     13.7   790.5    0.00     118    999.0    0.8
 152    9:30   63.2    36    4.3    91     14.4   790.5    0.00      64    999.0    0.3
 152    9:40   63.4    33    4.5    94     18.8   790.5    0.00      75    999.0    0.5
 152    9:50   63.4    31    4.7   104     15.9   790.5    0.00      60    999.0    0.9
 152   10:00   63.4    28    4.5   111     15.9   790.6    0.00      51    999.0    1.1
 152   10:10   63.6    27    5.3   104     20.6   790.6    0.00      50    999.0    1.0
 152   10:20   64.3    27    3.8   129     10.4   790.6    0.00      51    999.0    1.2
 152   10:30   64.4    27    4.5   122     17.4   790.6    0.00      51    999.0    1.3
 152   10:40   64.6    26    4.3   120     19.9   790.6    0.00      76    999.0    1.4
 152   10:50   65.0    26    2.9   111     12.1   790.6    0.00     554    999.0    1.2
 152   11:00   65.9    24    3.2   114     13.8   790.6    0.00     509    999.0    1.1
 152   11:10   66.0    24    3.9    93     13.8   790.6    0.00    1054    999.0    1.1
 152   11:20   66.5    23    3.4   109     10.2   790.6    0.00    1067    999.0    1.1
 152   11:30   67.1    22    2.3   126      9.6   790.5    0.00    1074    999.0    1.4
 152   11:40   67.4    22    2.7   115     10.4   790.5    0.00    1074    999.0    1.3
 152   11:50   67.6    23    2.6   101     13.0   790.4    0.00    1076    999.0    1.3
 152   12:00   68.3    22    2.0   138      7.5   790.4    0.00     943    999.0    1.2
 152   12:10   67.5    22    3.0   102     11.6   790.3    0.00     133    999.0    1.1
 152   12:20   68.3    21    1.4   156      6.6   790.3    0.00      56    999.0    1.4
 152   12:30   68.1    20    2.6   121      9.6   790.2    0.00      57    999.0    1.6
 152   12:40   68.3    21    2.1   128      8.7   790.2    0.00      56    999.0    1.5
 152   12:50   68.5    20    3.4   108     14.3   790.2    0.00      58    999.0    1.2
 152   13:00   68.4    18    2.0   125      6.5   790.1    0.00      57    999.0    1.3
 152   13:10   68.5    18    2.9   133     10.7   790.0    0.00      57    999.0    1.5
 152   13:20   68.9    20    3.3   105     16.4   790.0    0.00     186    999.0    0.7
 152   13:30   69.4    18    2.7   131     11.5   790.0    0.00     826    999.0    1.1
 152   13:40   69.9    19    1.9   106      4.5   789.9    0.00    1001    999.0    0.8
 152   13:50   70.4    19    2.4   166     11.8   789.9    0.00     985    999.0    1.3
 152   14:00   69.9    20    3.7    98     13.2   789.8    0.00     968    999.0    0.8
 152   14:10   70.4    19    3.0   144      9.6   789.7    0.00     949    999.0    0.8
 152   14:20   70.5    19    2.1   207      7.1   789.7    0.00     926    999.0    1.1
 152   14:30   71.0    19    2.4   130      9.4   789.5    0.00     916    999.0    0.9
 152   14:40   70.7    20    2.3   175      7.5   789.5    0.00     881    999.0    0.9
 152   14:50   70.9    22    3.0   205     11.5   789.4    0.00     885    999.0    0.7
 152   15:00   71.1    32    3.1   194     11.5   789.4    0.00     692    999.0    0.4
 152   15:10   70.9    33    2.8   248      9.6   789.4    0.00     367    999.0    0.0
 152   15:20   69.7    34    4.1   255     17.2   789.4    0.00     732    999.0   -0.1
 152   15:30   69.8    33    3.6   223     16.1   789.4    0.00     633    999.0    0.4
 152   15:40   71.2    32    1.9   322      8.3   789.4    0.00     745    999.0    0.6
 152   15:50   71.3    30    4.0   262     13.1   789.4    0.00     694    999.0    0.4
 152   16:00   70.7    32    2.9   242     10.4   789.4    0.00     653    999.0    0.3
 152   16:10   71.3    30    2.4   280     10.0   789.4    0.00     615    999.0    0.4
 152   16:20   70.8    30    2.7   261      8.7   789.3    0.00     579    999.0    0.6
 152   16:30   70.4    31    2.9   233     11.2   789.3    0.00     546    999.0    0.6
 152   16:40   70.2    31    2.8   281     10.9   789.3    0.00     512    999.0    0.5
 152   16:50   69.9    32    2.5   280     10.7   789.3    0.00     477    999.0    0.1
 152   17:00   69.8    32    2.8   233     11.5   789.3    0.00     440    999.0   -0.1
 152   17:10   69.3    32    2.5   248     11.6   789.3    0.00     406    999.0    0.3
 152   17:20   69.3    33    2.4   235     12.6   789.3    0.00     370    999.0    0.4
 152   17:30   68.7    33    2.6   255      8.0   789.3    0.00     334    999.0    0.9
 152   17:40   68.2    34    2.6   222     13.2   789.4    0.00     297    999.0    0.6
 152   17:50   67.2    35    2.0   215      5.8   789.5    0.00     245    999.0    0.5
 152   18:00   66.7    35    2.1   209      6.6   789.5    0.00     216    999.0    0.1
 152   18:10   65.4    37    2.1   218      7.2   789.6    0.00      75    999.0    0.2
 152   18:20   64.5    39    2.3   224      6.7   789.7    0.00      36    999.0    0.0
 152   18:30   63.9    41    1.8   218      6.6   789.8    0.00      26    999.0    0.1
 152   18:40   62.7    43    1.8   213      6.6   789.9    0.00      21    999.0    0.3
 152   18:50   61.5    45    1.8   205      6.4   789.9    0.00      15    999.0    0.6
 152   19:00   60.4    47    2.3   204      6.9   789.9    0.00       8    999.0    0.6
 152   19:10   59.9    48    2.5   202     10.0   790.0    0.00       7    999.0    0.8
 152   19:20   59.5    49    2.1   204      6.7   790.1    0.00       3    999.0    0.8
 152   19:30   58.4    51    0.5   206      3.3   790.2    0.00       1    999.0    0.8
 152   19:40   56.7    54    0.3   185      3.5   790.2    0.00       0    999.0    1.5

Return to Sugar Bowl graphs page.


Western Regional Climate Center,wrcc@dri.edu